sensor_id;sensor_type;location;lat;lon;timestamp;P1;durP1;ratioP1;P2;durP2;ratioP2
78122;SDS011;67376;44.802;10.332;2023-06-10T00:00:40;5.45;;;4.03;;
78122;SDS011;67376;44.802;10.332;2023-06-10T00:03:09;6.50;;;4.05;;
78122;SDS011;67376;44.802;10.332;2023-06-10T00:05:34;5.22;;;4.15;;
78122;SDS011;67376;44.802;10.332;2023-06-10T00:08:01;7.60;;;4.35;;
78122;SDS011;67376;44.802;10.332;2023-06-10T00:10:32;5.88;;;4.47;;
78122;SDS011;67376;44.802;10.332;2023-06-10T00:13:02;6.95;;;4.90;;
78122;SDS011;67376;44.802;10.332;2023-06-10T00:15:29;5.75;;;4.18;;
78122;SDS011;67376;44.802;10.332;2023-06-10T00:17:55;6.25;;;3.92;;
78122;SDS011;67376;44.802;10.332;2023-06-10T00:20:20;4.80;;;3.90;;
78122;SDS011;67376;44.802;10.332;2023-06-10T00:22:48;5.80;;;4.30;;
78122;SDS011;67376;44.802;10.332;2023-06-10T00:25:17;4.93;;;3.80;;
78122;SDS011;67376;44.802;10.332;2023-06-10T00:27:43;4.97;;;3.92;;
78122;SDS011;67376;44.802;10.332;2023-06-10T00:30:08;5.03;;;3.83;;
78122;SDS011;67376;44.802;10.332;2023-06-10T00:32:35;6.05;;;4.30;;
78122;SDS011;67376;44.802;10.332;2023-06-10T00:35:01;5.18;;;3.97;;
78122;SDS011;67376;44.802;10.332;2023-06-10T00:37:27;5.00;;;4.10;;
78122;SDS011;67376;44.802;10.332;2023-06-10T00:39:53;5.10;;;3.72;;
78122;SDS011;67376;44.802;10.332;2023-06-10T00:42:19;5.28;;;3.90;;
78122;SDS011;67376;44.802;10.332;2023-06-10T00:44:44;4.93;;;3.70;;
78122;SDS011;67376;44.802;10.332;2023-06-10T00:47:10;5.82;;;4.00;;
78122;SDS011;67376;44.802;10.332;2023-06-10T00:49:35;5.60;;;3.85;;
78122;SDS011;67376;44.802;10.332;2023-06-10T00:52:01;5.18;;;4.00;;
78122;SDS011;67376;44.802;10.332;2023-06-10T00:54:28;5.03;;;3.58;;
78122;SDS011;67376;44.802;10.332;2023-06-10T00:56:54;7.30;;;4.15;;
78122;SDS011;67376;44.802;10.332;2023-06-10T00:59:20;5.75;;;3.97;;
78122;SDS011;67376;44.802;10.332;2023-06-10T01:01:46;4.68;;;3.55;;
78122;SDS011;67376;44.802;10.332;2023-06-10T01:04:14;5.20;;;3.72;;
78122;SDS011;67376;44.802;10.332;2023-06-10T01:07:06;4.72;;;3.28;;
78122;SDS011;67376;44.802;10.332;2023-06-10T01:09:59;5.57;;;3.80;;
78122;SDS011;67376;44.802;10.332;2023-06-10T01:12:39;5.22;;;3.63;;
78122;SDS011;67376;44.802;10.332;2023-06-10T01:15:14;5.28;;;3.50;;
78122;SDS011;67376;44.802;10.332;2023-06-10T01:20:29;4.70;;;3.65;;
78122;SDS011;67376;44.802;10.332;2023-06-10T01:22:58;7.25;;;3.78;;
78122;SDS011;67376;44.802;10.332;2023-06-10T01:25:24;4.60;;;3.33;;
78122;SDS011;67376;44.802;10.332;2023-06-10T01:28:21;4.78;;;3.60;;
78122;SDS011;67376;44.802;10.332;2023-06-10T01:30:57;5.60;;;3.53;;
78122;SDS011;67376;44.802;10.332;2023-06-10T01:33:32;4.30;;;3.13;;
78122;SDS011;67376;44.802;10.332;2023-06-10T01:36:02;5.07;;;3.13;;
78122;SDS011;67376;44.802;10.332;2023-06-10T01:38:30;5.40;;;3.80;;
78122;SDS011;67376;44.802;10.332;2023-06-10T01:41:01;4.88;;;3.50;;
78122;SDS011;67376;44.802;10.332;2023-06-10T01:43:28;5.95;;;3.20;;
78122;SDS011;67376;44.802;10.332;2023-06-10T01:45:53;3.90;;;2.80;;
78122;SDS011;67376;44.802;10.332;2023-06-10T01:48:19;4.85;;;3.35;;
78122;SDS011;67376;44.802;10.332;2023-06-10T01:50:44;5.43;;;3.15;;
78122;SDS011;67376;44.802;10.332;2023-06-10T01:53:10;4.30;;;3.30;;
78122;SDS011;67376;44.802;10.332;2023-06-10T01:55:35;5.68;;;3.35;;
78122;SDS011;67376;44.802;10.332;2023-06-10T01:58:00;3.15;;;2.63;;
78122;SDS011;67376;44.802;10.332;2023-06-10T02:00:26;6.55;;;5.45;;
78122;SDS011;67376;44.802;10.332;2023-06-10T02:02:51;5.82;;;3.50;;
78122;SDS011;67376;44.802;10.332;2023-06-10T02:05:17;4.82;;;3.03;;
78122;SDS011;67376;44.802;10.332;2023-06-10T02:07:42;5.43;;;2.83;;
78122;SDS011;67376;44.802;10.332;2023-06-10T02:10:07;5.15;;;3.50;;
78122;SDS011;67376;44.802;10.332;2023-06-10T02:12:33;5.10;;;3.47;;
78122;SDS011;67376;44.802;10.332;2023-06-10T02:14:58;4.72;;;3.28;;
78122;SDS011;67376;44.802;10.332;2023-06-10T02:17:24;5.13;;;3.47;;
78122;SDS011;67376;44.802;10.332;2023-06-10T02:19:49;5.32;;;3.30;;
78122;SDS011;67376;44.802;10.332;2023-06-10T02:22:19;4.55;;;2.83;;
78122;SDS011;67376;44.802;10.332;2023-06-10T02:24:48;6.10;;;3.53;;
78122;SDS011;67376;44.802;10.332;2023-06-10T02:27:14;4.97;;;3.45;;
78122;SDS011;67376;44.802;10.332;2023-06-10T02:29:43;5.43;;;3.25;;
78122;SDS011;67376;44.802;10.332;2023-06-10T02:32:08;6.53;;;3.33;;
78122;SDS011;67376;44.802;10.332;2023-06-10T02:34:34;5.15;;;3.45;;
78122;SDS011;67376;44.802;10.332;2023-06-10T02:36:59;5.65;;;3.25;;
78122;SDS011;67376;44.802;10.332;2023-06-10T02:39:26;5.18;;;3.80;;
78122;SDS011;67376;44.802;10.332;2023-06-10T02:41:51;5.32;;;3.20;;
78122;SDS011;67376;44.802;10.332;2023-06-10T02:44:17;5.22;;;3.15;;
78122;SDS011;67376;44.802;10.332;2023-06-10T02:46:43;6.05;;;3.65;;
78122;SDS011;67376;44.802;10.332;2023-06-10T02:49:08;4.28;;;2.97;;
78122;SDS011;67376;44.802;10.332;2023-06-10T02:51:34;6.13;;;3.35;;
78122;SDS011;67376;44.802;10.332;2023-06-10T02:54:00;4.32;;;3.03;;
78122;SDS011;67376;44.802;10.332;2023-06-10T02:56:26;4.65;;;3.25;;
78122;SDS011;67376;44.802;10.332;2023-06-10T02:58:52;4.13;;;2.95;;
78122;SDS011;67376;44.802;10.332;2023-06-10T03:01:18;6.05;;;3.17;;
78122;SDS011;67376;44.802;10.332;2023-06-10T03:03:44;4.88;;;3.25;;
78122;SDS011;67376;44.802;10.332;2023-06-10T03:06:11;4.10;;;3.20;;
78122;SDS011;67376;44.802;10.332;2023-06-10T03:08:37;7.50;;;4.15;;
78122;SDS011;67376;44.802;10.332;2023-06-10T03:11:03;4.30;;;3.00;;
78122;SDS011;67376;44.802;10.332;2023-06-10T03:13:28;4.78;;;3.03;;
78122;SDS011;67376;44.802;10.332;2023-06-10T03:15:54;5.38;;;3.28;;
78122;SDS011;67376;44.802;10.332;2023-06-10T03:18:20;9.13;;;2.95;;
78122;SDS011;67376;44.802;10.332;2023-06-10T03:20:45;5.97;;;3.58;;
78122;SDS011;67376;44.802;10.332;2023-06-10T03:23:10;6.40;;;3.92;;
78122;SDS011;67376;44.802;10.332;2023-06-10T03:25:36;4.85;;;2.95;;
78122;SDS011;67376;44.802;10.332;2023-06-10T03:28:01;8.02;;;3.50;;
78122;SDS011;67376;44.802;10.332;2023-06-10T03:30:30;7.85;;;3.10;;
78122;SDS011;67376;44.802;10.332;2023-06-10T03:32:55;4.47;;;3.25;;
78122;SDS011;67376;44.802;10.332;2023-06-10T03:35:20;5.20;;;3.17;;
78122;SDS011;67376;44.802;10.332;2023-06-10T03:37:46;5.47;;;2.95;;
78122;SDS011;67376;44.802;10.332;2023-06-10T03:40:11;5.40;;;3.60;;
78122;SDS011;67376;44.802;10.332;2023-06-10T03:42:37;9.10;;;4.68;;
78122;SDS011;67376;44.802;10.332;2023-06-10T03:45:02;5.50;;;3.42;;
78122;SDS011;67376;44.802;10.332;2023-06-10T03:47:35;6.10;;;3.55;;
78122;SDS011;67376;44.802;10.332;2023-06-10T03:50:04;3.67;;;2.70;;
78122;SDS011;67376;44.802;10.332;2023-06-10T03:52:30;4.13;;;3.03;;
78122;SDS011;67376;44.802;10.332;2023-06-10T03:54:56;5.82;;;3.25;;
78122;SDS011;67376;44.802;10.332;2023-06-10T03:57:21;6.38;;;2.92;;
78122;SDS011;67376;44.802;10.332;2023-06-10T03:59:46;4.20;;;2.72;;
78122;SDS011;67376;44.802;10.332;2023-06-10T04:02:12;4.30;;;2.70;;
78122;SDS011;67376;44.802;10.332;2023-06-10T04:04:37;6.07;;;2.92;;
78122;SDS011;67376;44.802;10.332;2023-06-10T04:07:03;5.63;;;3.00;;
78122;SDS011;67376;44.802;10.332;2023-06-10T04:09:30;5.38;;;3.00;;
78122;SDS011;67376;44.802;10.332;2023-06-10T04:11:55;7.65;;;3.28;;
78122;SDS011;67376;44.802;10.332;2023-06-10T04:14:20;4.05;;;2.65;;
78122;SDS011;67376;44.802;10.332;2023-06-10T04:16:46;3.45;;;2.55;;
78122;SDS011;67376;44.802;10.332;2023-06-10T04:19:11;3.70;;;2.65;;
78122;SDS011;67376;44.802;10.332;2023-06-10T04:21:37;5.57;;;3.10;;
78122;SDS011;67376;44.802;10.332;2023-06-10T04:24:02;4.32;;;2.78;;
78122;SDS011;67376;44.802;10.332;2023-06-10T04:26:28;5.25;;;3.10;;
78122;SDS011;67376;44.802;10.332;2023-06-10T04:28:53;4.03;;;3.25;;
78122;SDS011;67376;44.802;10.332;2023-06-10T04:31:18;3.47;;;2.88;;
78122;SDS011;67376;44.802;10.332;2023-06-10T04:33:44;5.57;;;2.97;;
78122;SDS011;67376;44.802;10.332;2023-06-10T04:36:10;5.93;;;2.63;;
78122;SDS011;67376;44.802;10.332;2023-06-10T04:38:35;4.05;;;2.65;;
78122;SDS011;67376;44.802;10.332;2023-06-10T04:41:00;5.00;;;2.40;;
78122;SDS011;67376;44.802;10.332;2023-06-10T04:43:26;5.65;;;2.95;;
78122;SDS011;67376;44.802;10.332;2023-06-10T04:45:53;3.88;;;2.65;;
78122;SDS011;67376;44.802;10.332;2023-06-10T04:48:19;4.07;;;2.78;;
78122;SDS011;67376;44.802;10.332;2023-06-10T04:50:44;7.30;;;3.65;;
78122;SDS011;67376;44.802;10.332;2023-06-10T04:53:09;5.20;;;2.60;;
78122;SDS011;67376;44.802;10.332;2023-06-10T04:55:35;5.50;;;2.85;;
78122;SDS011;67376;44.802;10.332;2023-06-10T04:58:01;5.10;;;3.15;;
78122;SDS011;67376;44.802;10.332;2023-06-10T05:00:26;6.47;;;2.80;;
78122;SDS011;67376;44.802;10.332;2023-06-10T05:02:52;5.13;;;3.38;;
78122;SDS011;67376;44.802;10.332;2023-06-10T05:05:18;4.97;;;3.00;;
78122;SDS011;67376;44.802;10.332;2023-06-10T05:07:44;3.95;;;2.70;;
78122;SDS011;67376;44.802;10.332;2023-06-10T05:10:09;4.65;;;2.70;;
78122;SDS011;67376;44.802;10.332;2023-06-10T05:12:35;5.07;;;3.05;;
78122;SDS011;67376;44.802;10.332;2023-06-10T05:15:00;6.38;;;3.22;;
78122;SDS011;67376;44.802;10.332;2023-06-10T05:17:26;6.75;;;3.17;;
78122;SDS011;67376;44.802;10.332;2023-06-10T05:19:52;4.32;;;2.90;;
78122;SDS011;67376;44.802;10.332;2023-06-10T05:22:18;4.45;;;2.70;;
78122;SDS011;67376;44.802;10.332;2023-06-10T05:24:43;4.47;;;3.42;;
78122;SDS011;67376;44.802;10.332;2023-06-10T05:27:09;5.38;;;3.03;;
78122;SDS011;67376;44.802;10.332;2023-06-10T05:29:35;5.93;;;2.97;;
78122;SDS011;67376;44.802;10.332;2023-06-10T05:32:00;6.43;;;3.03;;
78122;SDS011;67376;44.802;10.332;2023-06-10T05:34:28;4.45;;;3.20;;
78122;SDS011;67376;44.802;10.332;2023-06-10T05:36:56;6.55;;;3.15;;
78122;SDS011;67376;44.802;10.332;2023-06-10T05:39:22;3.72;;;2.67;;
78122;SDS011;67376;44.802;10.332;2023-06-10T05:41:48;5.13;;;3.10;;
78122;SDS011;67376;44.802;10.332;2023-06-10T05:44:13;4.10;;;3.15;;
78122;SDS011;67376;44.802;10.332;2023-06-10T05:46:38;5.55;;;3.38;;
78122;SDS011;67376;44.802;10.332;2023-06-10T05:49:04;4.25;;;2.55;;
78122;SDS011;67376;44.802;10.332;2023-06-10T05:51:29;4.20;;;2.40;;
78122;SDS011;67376;44.802;10.332;2023-06-10T05:53:54;4.70;;;2.85;;
78122;SDS011;67376;44.802;10.332;2023-06-10T05:56:20;4.68;;;2.72;;
78122;SDS011;67376;44.802;10.332;2023-06-10T05:58:47;4.85;;;2.65;;
78122;SDS011;67376;44.802;10.332;2023-06-10T06:01:13;3.78;;;2.50;;
78122;SDS011;67376;44.802;10.332;2023-06-10T06:03:38;3.70;;;2.72;;
78122;SDS011;67376;44.802;10.332;2023-06-10T06:06:04;6.47;;;3.17;;
78122;SDS011;67376;44.802;10.332;2023-06-10T06:08:29;5.80;;;3.00;;
78122;SDS011;67376;44.802;10.332;2023-06-10T06:10:55;8.05;;;3.03;;
78122;SDS011;67376;44.802;10.332;2023-06-10T06:13:20;2.90;;;2.45;;
78122;SDS011;67376;44.802;10.332;2023-06-10T06:15:46;4.50;;;2.47;;
78122;SDS011;67376;44.802;10.332;2023-06-10T06:18:11;9.38;;;3.03;;
78122;SDS011;67376;44.802;10.332;2023-06-10T06:20:36;4.57;;;3.08;;
78122;SDS011;67376;44.802;10.332;2023-06-10T06:23:02;6.97;;;2.80;;
78122;SDS011;67376;44.802;10.332;2023-06-10T06:25:27;3.28;;;2.45;;
78122;SDS011;67376;44.802;10.332;2023-06-10T06:27:53;3.78;;;2.60;;
78122;SDS011;67376;44.802;10.332;2023-06-10T06:30:18;2.72;;;2.40;;
78122;SDS011;67376;44.802;10.332;2023-06-10T06:32:43;4.93;;;2.25;;
78122;SDS011;67376;44.802;10.332;2023-06-10T06:35:09;3.65;;;2.70;;
78122;SDS011;67376;44.802;10.332;2023-06-10T06:37:35;3.58;;;2.63;;
78122;SDS011;67376;44.802;10.332;2023-06-10T06:40:00;3.60;;;2.25;;
78122;SDS011;67376;44.802;10.332;2023-06-10T06:42:26;5.07;;;2.40;;
78122;SDS011;67376;44.802;10.332;2023-06-10T06:44:51;4.93;;;2.63;;
78122;SDS011;67376;44.802;10.332;2023-06-10T06:47:17;4.30;;;2.40;;
78122;SDS011;67376;44.802;10.332;2023-06-10T06:49:48;2.97;;;2.38;;
78122;SDS011;67376;44.802;10.332;2023-06-10T06:52:14;5.35;;;2.58;;
78122;SDS011;67376;44.802;10.332;2023-06-10T06:54:40;6.65;;;2.45;;
78122;SDS011;67376;44.802;10.332;2023-06-10T06:57:06;4.60;;;2.65;;
78122;SDS011;67376;44.802;10.332;2023-06-10T06:59:32;3.45;;;2.30;;
78122;SDS011;67376;44.802;10.332;2023-06-10T07:01:58;5.18;;;2.60;;
78122;SDS011;67376;44.802;10.332;2023-06-10T07:04:23;4.85;;;1.90;;
78122;SDS011;67376;44.802;10.332;2023-06-10T07:06:49;5.50;;;2.00;;
78122;SDS011;67376;44.802;10.332;2023-06-10T07:09:15;3.72;;;1.92;;
78122;SDS011;67376;44.802;10.332;2023-06-10T07:11:40;3.25;;;2.22;;
78122;SDS011;67376;44.802;10.332;2023-06-10T07:14:06;4.80;;;2.25;;
78122;SDS011;67376;44.802;10.332;2023-06-10T07:16:32;3.50;;;2.15;;
78122;SDS011;67376;44.802;10.332;2023-06-10T07:18:57;2.97;;;2.08;;
78122;SDS011;67376;44.802;10.332;2023-06-10T07:21:23;3.22;;;1.92;;
78122;SDS011;67376;44.802;10.332;2023-06-10T07:23:48;8.38;;;2.30;;
78122;SDS011;67376;44.802;10.332;2023-06-10T07:26:14;5.25;;;2.58;;
78122;SDS011;67376;44.802;10.332;2023-06-10T07:28:40;3.58;;;2.45;;
78122;SDS011;67376;44.802;10.332;2023-06-10T07:31:06;4.30;;;2.30;;
78122;SDS011;67376;44.802;10.332;2023-06-10T07:33:32;5.57;;;2.33;;
78122;SDS011;67376;44.802;10.332;2023-06-10T07:35:57;3.40;;;2.10;;
78122;SDS011;67376;44.802;10.332;2023-06-10T07:38:24;4.20;;;2.20;;
78122;SDS011;67376;44.802;10.332;2023-06-10T07:40:50;8.93;;;2.70;;
78122;SDS011;67376;44.802;10.332;2023-06-10T07:43:16;4.80;;;2.25;;
78122;SDS011;67376;44.802;10.332;2023-06-10T07:45:41;4.10;;;2.28;;
78122;SDS011;67376;44.802;10.332;2023-06-10T07:48:07;3.67;;;2.17;;
78122;SDS011;67376;44.802;10.332;2023-06-10T07:50:33;5.10;;;2.33;;
78122;SDS011;67376;44.802;10.332;2023-06-10T07:52:58;4.75;;;2.33;;
78122;SDS011;67376;44.802;10.332;2023-06-10T07:55:23;3.80;;;2.30;;
78122;SDS011;67376;44.802;10.332;2023-06-10T07:57:51;5.68;;;2.35;;
78122;SDS011;67376;44.802;10.332;2023-06-10T08:00:16;4.53;;;2.22;;
78122;SDS011;67376;44.802;10.332;2023-06-10T08:02:42;5.75;;;2.53;;
78122;SDS011;67376;44.802;10.332;2023-06-10T08:05:07;2.92;;;1.90;;
78122;SDS011;67376;44.802;10.332;2023-06-10T08:07:33;8.05;;;2.63;;
78122;SDS011;67376;44.802;10.332;2023-06-10T08:09:58;4.30;;;2.17;;
78122;SDS011;67376;44.802;10.332;2023-06-10T08:12:24;4.97;;;2.15;;
78122;SDS011;67376;44.802;10.332;2023-06-10T08:14:49;6.00;;;2.05;;
78122;SDS011;67376;44.802;10.332;2023-06-10T08:17:15;3.50;;;1.85;;
78122;SDS011;67376;44.802;10.332;2023-06-10T08:19:40;3.78;;;2.00;;
78122;SDS011;67376;44.802;10.332;2023-06-10T08:22:05;7.50;;;2.47;;
78122;SDS011;67376;44.802;10.332;2023-06-10T08:24:32;4.22;;;2.33;;
78122;SDS011;67376;44.802;10.332;2023-06-10T08:26:58;5.03;;;2.08;;
78122;SDS011;67376;44.802;10.332;2023-06-10T08:29:23;3.17;;;2.10;;
78122;SDS011;67376;44.802;10.332;2023-06-10T08:31:49;3.22;;;2.17;;
78122;SDS011;67376;44.802;10.332;2023-06-10T08:34:14;3.60;;;2.35;;
78122;SDS011;67376;44.802;10.332;2023-06-10T08:36:40;4.28;;;2.70;;
78122;SDS011;67376;44.802;10.332;2023-06-10T08:39:05;4.10;;;1.88;;
78122;SDS011;67376;44.802;10.332;2023-06-10T08:41:33;3.90;;;2.28;;
78122;SDS011;67376;44.802;10.332;2023-06-10T08:46:44;5.20;;;2.42;;
78122;SDS011;67376;44.802;10.332;2023-06-10T08:49:10;5.82;;;2.38;;
78122;SDS011;67376;44.802;10.332;2023-06-10T08:51:43;3.20;;;1.90;;
78122;SDS011;67376;44.802;10.332;2023-06-10T08:54:17;3.53;;;2.15;;
78122;SDS011;67376;44.802;10.332;2023-06-10T08:56:49;3.40;;;2.20;;
78122;SDS011;67376;44.802;10.332;2023-06-10T08:59:16;4.25;;;2.10;;
78122;SDS011;67376;44.802;10.332;2023-06-10T09:01:42;4.38;;;2.65;;
78122;SDS011;67376;44.802;10.332;2023-06-10T09:04:09;5.45;;;2.85;;
78122;SDS011;67376;44.802;10.332;2023-06-10T09:06:35;3.53;;;2.03;;
78122;SDS011;67376;44.802;10.332;2023-06-10T09:09:01;3.47;;;2.45;;
78122;SDS011;67376;44.802;10.332;2023-06-10T09:11:27;5.32;;;2.25;;
78122;SDS011;67376;44.802;10.332;2023-06-10T09:13:53;5.22;;;2.35;;
78122;SDS011;67376;44.802;10.332;2023-06-10T09:16:18;8.32;;;2.95;;
78122;SDS011;67376;44.802;10.332;2023-06-10T09:18:43;3.55;;;2.28;;
78122;SDS011;67376;44.802;10.332;2023-06-10T09:21:09;5.22;;;2.28;;
78122;SDS011;67376;44.802;10.332;2023-06-10T09:23:35;3.22;;;2.35;;
78122;SDS011;67376;44.802;10.332;2023-06-10T09:26:02;4.18;;;2.53;;
78122;SDS011;67376;44.802;10.332;2023-06-10T09:28:30;5.55;;;2.50;;
78122;SDS011;67376;44.802;10.332;2023-06-10T09:31:04;3.78;;;2.30;;
78122;SDS011;67376;44.802;10.332;2023-06-10T09:33:32;4.13;;;2.30;;
78122;SDS011;67376;44.802;10.332;2023-06-10T09:35:57;3.55;;;2.53;;
78122;SDS011;67376;44.802;10.332;2023-06-10T09:38:29;4.93;;;2.20;;
78122;SDS011;67376;44.802;10.332;2023-06-10T09:40:56;3.15;;;2.10;;
78122;SDS011;67376;44.802;10.332;2023-06-10T09:43:21;4.22;;;2.88;;
78122;SDS011;67376;44.802;10.332;2023-06-10T09:45:50;5.95;;;2.80;;
78122;SDS011;67376;44.802;10.332;2023-06-10T09:48:19;3.25;;;2.10;;
78122;SDS011;67376;44.802;10.332;2023-06-10T09:50:45;3.70;;;2.40;;
78122;SDS011;67376;44.802;10.332;2023-06-10T09:53:11;4.28;;;2.25;;
78122;SDS011;67376;44.802;10.332;2023-06-10T09:55:41;4.28;;;2.67;;
78122;SDS011;67376;44.802;10.332;2023-06-10T09:58:06;4.75;;;2.55;;
78122;SDS011;67376;44.802;10.332;2023-06-10T10:00:32;4.53;;;2.20;;
78122;SDS011;67376;44.802;10.332;2023-06-10T10:02:59;4.57;;;2.47;;
78122;SDS011;67376;44.802;10.332;2023-06-10T10:05:24;5.03;;;2.40;;
78122;SDS011;67376;44.802;10.332;2023-06-10T10:07:50;4.00;;;2.53;;
78122;SDS011;67376;44.802;10.332;2023-06-10T10:10:17;5.22;;;2.40;;
78122;SDS011;67376;44.802;10.332;2023-06-10T10:12:46;6.57;;;2.30;;
78122;SDS011;67376;44.802;10.332;2023-06-10T10:15:12;4.68;;;2.67;;
78122;SDS011;67376;44.802;10.332;2023-06-10T10:17:48;6.40;;;2.53;;
78122;SDS011;67376;44.802;10.332;2023-06-10T10:20:17;4.45;;;2.60;;
78122;SDS011;67376;44.802;10.332;2023-06-10T10:22:47;8.63;;;2.88;;
78122;SDS011;67376;44.802;10.332;2023-06-10T10:25:21;4.82;;;2.70;;
78122;SDS011;67376;44.802;10.332;2023-06-10T10:27:51;6.85;;;3.22;;
78122;SDS011;67376;44.802;10.332;2023-06-10T10:30:20;5.95;;;3.00;;
78122;SDS011;67376;44.802;10.332;2023-06-10T10:35:21;3.50;;;2.55;;
78122;SDS011;67376;44.802;10.332;2023-06-10T10:37:48;4.78;;;3.20;;
78122;SDS011;67376;44.802;10.332;2023-06-10T10:40:17;4.13;;;2.85;;
78122;SDS011;67376;44.802;10.332;2023-06-10T10:42:43;6.20;;;2.85;;
78122;SDS011;67376;44.802;10.332;2023-06-10T10:45:09;6.10;;;3.13;;
78122;SDS011;67376;44.802;10.332;2023-06-10T10:47:36;7.85;;;3.05;;
78122;SDS011;67376;44.802;10.332;2023-06-10T10:50:03;5.38;;;3.55;;
78122;SDS011;67376;44.802;10.332;2023-06-10T10:52:55;8.50;;;3.35;;
78122;SDS011;67376;44.802;10.332;2023-06-10T10:55:24;7.00;;;3.17;;
78122;SDS011;67376;44.802;10.332;2023-06-10T10:57:54;5.55;;;3.17;;
78122;SDS011;67376;44.802;10.332;2023-06-10T11:00:30;7.05;;;3.50;;
78122;SDS011;67376;44.802;10.332;2023-06-10T11:03:16;7.88;;;3.20;;
78122;SDS011;67376;44.802;10.332;2023-06-10T11:08:09;8.60;;;3.15;;
78122;SDS011;67376;44.802;10.332;2023-06-10T11:10:39;5.70;;;3.28;;
78122;SDS011;67376;44.802;10.332;2023-06-10T11:13:07;5.32;;;3.42;;
78122;SDS011;67376;44.802;10.332;2023-06-10T11:15:37;4.93;;;2.83;;
78122;SDS011;67376;44.802;10.332;2023-06-10T11:18:24;11.23;;;4.05;;
78122;SDS011;67376;44.802;10.332;2023-06-10T11:28:40;9.77;;;3.40;;
78122;SDS011;67376;44.802;10.332;2023-06-10T11:31:06;7.07;;;3.78;;
78122;SDS011;67376;44.802;10.332;2023-06-10T11:33:32;7.25;;;3.30;;
78122;SDS011;67376;44.802;10.332;2023-06-10T11:35:57;7.15;;;3.38;;
78122;SDS011;67376;44.802;10.332;2023-06-10T11:38:23;6.30;;;3.45;;
78122;SDS011;67376;44.802;10.332;2023-06-10T11:40:49;9.07;;;3.97;;
78122;SDS011;67376;44.802;10.332;2023-06-10T11:43:18;6.78;;;3.15;;
78122;SDS011;67376;44.802;10.332;2023-06-10T11:45:45;5.15;;;3.05;;
78122;SDS011;67376;44.802;10.332;2023-06-10T11:48:12;6.78;;;3.60;;
78122;SDS011;67376;44.802;10.332;2023-06-10T11:50:37;6.10;;;3.13;;
78122;SDS011;67376;44.802;10.332;2023-06-10T11:53:03;8.43;;;3.38;;
78122;SDS011;67376;44.802;10.332;2023-06-10T11:55:41;9.45;;;3.53;;
78122;SDS011;67376;44.802;10.332;2023-06-10T11:58:18;6.38;;;3.45;;
78122;SDS011;67376;44.802;10.332;2023-06-10T12:00:49;5.93;;;3.55;;
78122;SDS011;67376;44.802;10.332;2023-06-10T12:03:15;6.47;;;3.28;;
78122;SDS011;67376;44.802;10.332;2023-06-10T12:05:40;5.47;;;3.72;;
78122;SDS011;67376;44.802;10.332;2023-06-10T12:08:28;4.63;;;3.00;;
78122;SDS011;67376;44.802;10.332;2023-06-10T12:10:54;5.05;;;3.00;;
78122;SDS011;67376;44.802;10.332;2023-06-10T12:13:20;4.88;;;3.45;;
78122;SDS011;67376;44.802;10.332;2023-06-10T12:15:46;7.25;;;3.33;;
78122;SDS011;67376;44.802;10.332;2023-06-10T12:18:19;5.65;;;3.10;;
78122;SDS011;67376;44.802;10.332;2023-06-10T12:20:45;7.68;;;3.30;;
78122;SDS011;67376;44.802;10.332;2023-06-10T12:23:11;8.88;;;3.30;;
78122;SDS011;67376;44.802;10.332;2023-06-10T12:25:37;8.40;;;3.33;;
78122;SDS011;67376;44.802;10.332;2023-06-10T12:28:03;6.75;;;3.92;;
78122;SDS011;67376;44.802;10.332;2023-06-10T12:30:29;5.28;;;3.35;;
78122;SDS011;67376;44.802;10.332;2023-06-10T12:32:57;5.47;;;3.13;;
78122;SDS011;67376;44.802;10.332;2023-06-10T12:35:24;5.50;;;3.28;;
78122;SDS011;67376;44.802;10.332;2023-06-10T12:40:27;6.18;;;3.28;;
78122;SDS011;67376;44.802;10.332;2023-06-10T12:42:54;4.72;;;3.22;;
78122;SDS011;67376;44.802;10.332;2023-06-10T12:45:30;4.90;;;3.35;;
78122;SDS011;67376;44.802;10.332;2023-06-10T12:50:31;8.07;;;3.47;;
78122;SDS011;67376;44.802;10.332;2023-06-10T12:52:57;7.13;;;4.18;;
78122;SDS011;67376;44.802;10.332;2023-06-10T12:55:22;7.30;;;3.25;;
78122;SDS011;67376;44.802;10.332;2023-06-10T12:57:51;7.03;;;3.30;;
78122;SDS011;67376;44.802;10.332;2023-06-10T13:02:43;6.30;;;3.00;;
78122;SDS011;67376;44.802;10.332;2023-06-10T13:05:08;5.10;;;3.38;;
78122;SDS011;67376;44.802;10.332;2023-06-10T13:07:33;7.10;;;3.55;;
78122;SDS011;67376;44.802;10.332;2023-06-10T13:09:59;5.07;;;3.20;;
78122;SDS011;67376;44.802;10.332;2023-06-10T13:12:25;7.13;;;3.67;;
78122;SDS011;67376;44.802;10.332;2023-06-10T13:14:53;5.72;;;3.33;;
78122;SDS011;67376;44.802;10.332;2023-06-10T13:17:20;4.93;;;3.22;;
78122;SDS011;67376;44.802;10.332;2023-06-10T13:19:45;6.97;;;3.72;;
78122;SDS011;67376;44.802;10.332;2023-06-10T13:22:11;5.18;;;3.42;;
78122;SDS011;67376;44.802;10.332;2023-06-10T13:24:38;6.07;;;3.10;;
78122;SDS011;67376;44.802;10.332;2023-06-10T13:27:04;5.63;;;3.60;;
78122;SDS011;67376;44.802;10.332;2023-06-10T13:29:31;6.30;;;3.72;;
78122;SDS011;67376;44.802;10.332;2023-06-10T13:31:57;8.00;;;3.30;;
78122;SDS011;67376;44.802;10.332;2023-06-10T13:34:22;4.60;;;3.40;;
78122;SDS011;67376;44.802;10.332;2023-06-10T13:36:47;6.22;;;3.53;;
78122;SDS011;67376;44.802;10.332;2023-06-10T13:39:13;5.43;;;3.38;;
78122;SDS011;67376;44.802;10.332;2023-06-10T13:41:40;5.97;;;3.17;;
78122;SDS011;67376;44.802;10.332;2023-06-10T13:44:06;4.50;;;3.50;;
78122;SDS011;67376;44.802;10.332;2023-06-10T13:46:31;6.40;;;3.20;;
78122;SDS011;67376;44.802;10.332;2023-06-10T13:48:56;9.15;;;3.35;;
78122;SDS011;67376;44.802;10.332;2023-06-10T13:51:22;4.30;;;3.38;;
78122;SDS011;67376;44.802;10.332;2023-06-10T13:53:47;5.25;;;3.20;;
78122;SDS011;67376;44.802;10.332;2023-06-10T13:56:13;5.25;;;3.42;;
78122;SDS011;67376;44.802;10.332;2023-06-10T13:58:39;5.93;;;3.25;;
78122;SDS011;67376;44.802;10.332;2023-06-10T14:01:06;8.35;;;3.45;;
78122;SDS011;67376;44.802;10.332;2023-06-10T14:03:32;5.95;;;3.45;;
78122;SDS011;67376;44.802;10.332;2023-06-10T14:05:57;5.45;;;3.38;;
78122;SDS011;67376;44.802;10.332;2023-06-10T14:08:23;4.80;;;3.00;;
78122;SDS011;67376;44.802;10.332;2023-06-10T14:10:48;4.80;;;3.38;;
78122;SDS011;67376;44.802;10.332;2023-06-10T14:13:15;5.32;;;3.75;;
78122;SDS011;67376;44.802;10.332;2023-06-10T14:15:41;4.90;;;3.33;;
78122;SDS011;67376;44.802;10.332;2023-06-10T14:18:06;4.90;;;3.08;;
78122;SDS011;67376;44.802;10.332;2023-06-10T14:20:32;6.40;;;3.25;;
78122;SDS011;67376;44.802;10.332;2023-06-10T14:22:57;5.40;;;3.40;;
78122;SDS011;67376;44.802;10.332;2023-06-10T14:25:23;6.40;;;3.63;;
78122;SDS011;67376;44.802;10.332;2023-06-10T14:27:49;6.35;;;3.20;;
78122;SDS011;67376;44.802;10.332;2023-06-10T14:30:15;4.50;;;3.00;;
78122;SDS011;67376;44.802;10.332;2023-06-10T14:32:41;5.20;;;3.13;;
78122;SDS011;67376;44.802;10.332;2023-06-10T14:35:07;12.20;;;3.50;;
78122;SDS011;67376;44.802;10.332;2023-06-10T14:37:33;10.77;;;3.83;;
78122;SDS011;67376;44.802;10.332;2023-06-10T14:39:58;6.68;;;3.10;;
78122;SDS011;67376;44.802;10.332;2023-06-10T14:42:24;5.43;;;3.25;;
78122;SDS011;67376;44.802;10.332;2023-06-10T14:44:49;12.07;;;3.67;;
78122;SDS011;67376;44.802;10.332;2023-06-10T14:47:15;8.77;;;3.72;;
78122;SDS011;67376;44.802;10.332;2023-06-10T14:49:41;6.45;;;3.28;;
78122;SDS011;67376;44.802;10.332;2023-06-10T14:52:07;6.72;;;3.03;;
78122;SDS011;67376;44.802;10.332;2023-06-10T14:54:33;6.70;;;3.47;;
78122;SDS011;67376;44.802;10.332;2023-06-10T14:56:59;4.90;;;3.25;;